createdAt,value
2023-04-25T00:01:47.792Z,1.50
2023-04-25T00:03:50.703Z,1.50
2023-04-25T00:05:54.045Z,1.70
2023-04-25T00:07:57.141Z,1.30
2023-04-25T00:10:00.569Z,1.70
2023-04-25T00:12:03.342Z,1.80
2023-04-25T00:14:07.644Z,1.57
2023-04-25T00:16:12.487Z,1.70
2023-04-25T00:18:15.180Z,1.37
2023-04-25T00:20:18.017Z,1.23
2023-04-25T00:22:20.854Z,1.70
2023-04-25T00:24:24.000Z,1.50
2023-04-25T00:26:26.764Z,1.50
2023-04-25T00:28:29.614Z,1.53
2023-04-25T00:30:32.311Z,1.73
2023-04-25T00:32:36.884Z,1.17
2023-04-25T00:34:39.630Z,1.40
2023-04-25T00:36:42.381Z,1.27
2023-04-25T00:38:45.197Z,1.37
2023-04-25T00:40:48.273Z,1.50
2023-04-25T00:42:51.108Z,1.20
2023-04-25T00:44:54.242Z,1.50
2023-04-25T00:46:56.962Z,1.40
2023-04-25T00:49:01.359Z,1.47
2023-04-25T00:51:04.053Z,1.77
2023-04-25T00:53:06.762Z,1.80
2023-04-25T00:55:10.140Z,1.70
2023-04-25T00:57:13.213Z,1.40
2023-04-25T00:59:16.561Z,1.40
2023-04-25T01:01:19.653Z,1.40
2023-04-25T01:03:22.578Z,1.30
2023-04-25T01:05:27.227Z,1.40
2023-04-25T01:07:29.921Z,1.50
2023-04-25T01:09:33.028Z,1.50
2023-04-25T01:11:35.751Z,1.67
2023-04-25T01:13:38.918Z,1.57
2023-04-25T01:15:41.696Z,1.40
2023-04-25T01:17:45.300Z,1.40
2023-04-25T01:19:49.861Z,1.83
2023-04-25T01:21:54.231Z,1.50
2023-04-25T01:23:56.950Z,1.60
2023-04-25T01:25:59.798Z,1.80
2023-04-25T01:28:02.652Z,1.70
2023-04-25T01:30:06.883Z,1.47
2023-04-25T01:32:09.605Z,1.50
2023-04-25T01:34:12.343Z,1.60
2023-04-25T01:36:15.117Z,1.30
2023-04-25T01:38:19.529Z,1.40
2023-04-25T01:40:22.812Z,1.53
2023-04-25T01:42:25.833Z,1.40
2023-04-25T01:44:28.569Z,1.40
2023-04-25T01:46:31.835Z,1.60
2023-04-25T01:48:34.604Z,1.40
2023-04-25T01:50:37.444Z,1.23
2023-04-25T01:52:40.131Z,1.43
2023-04-25T01:54:45.742Z,1.73
2023-04-25T01:56:52.230Z,1.50
2023-04-25T01:58:55.046Z,1.60
2023-04-25T02:00:57.781Z,1.40
2023-04-25T02:03:01.079Z,1.50
2023-04-25T02:05:03.923Z,1.17
2023-04-25T02:07:06.707Z,1.60
2023-04-25T02:09:09.473Z,1.70
2023-04-25T02:11:13.789Z,1.30
2023-04-25T02:13:16.487Z,1.50
2023-04-25T02:15:19.214Z,1.40
2023-04-25T02:17:22.314Z,1.33
2023-04-25T02:19:25.703Z,1.33
2023-04-25T02:21:28.471Z,1.40
2023-04-25T02:23:31.190Z,1.77
2023-04-25T02:25:33.889Z,1.50
2023-04-25T02:27:38.268Z,1.40
2023-04-25T02:29:40.985Z,1.40
2023-04-25T02:31:43.844Z,1.87
2023-04-25T02:33:46.646Z,1.50
2023-04-25T02:35:49.779Z,1.50
2023-04-25T02:37:52.628Z,1.60
2023-04-25T02:39:55.382Z,1.20
2023-04-25T02:41:58.103Z,1.20
2023-04-25T02:44:02.480Z,1.60
2023-04-25T02:46:05.478Z,1.30
2023-04-25T02:48:11.950Z,1.23
2023-04-25T02:50:14.700Z,1.50
2023-04-25T02:52:17.860Z,1.30
2023-04-25T02:54:20.614Z,1.83
2023-04-25T02:56:23.469Z,1.40
2023-04-25T02:58:26.367Z,1.30
2023-04-25T03:00:31.190Z,1.13
2023-04-25T03:02:34.093Z,1.50
2023-04-25T03:04:36.948Z,1.40
2023-04-25T03:06:39.684Z,1.30
2023-04-25T03:08:42.867Z,1.43
2023-04-25T03:10:45.681Z,1.37
2023-04-25T03:12:48.418Z,1.30
2023-04-25T03:14:51.172Z,1.37
2023-04-25T03:16:55.658Z,1.13
2023-04-25T03:18:58.502Z,1.50
2023-04-25T03:21:01.209Z,1.40
2023-04-25T03:23:03.951Z,1.50
2023-04-25T03:25:08.153Z,1.20
2023-04-25T03:27:10.838Z,1.43
2023-04-25T03:29:13.705Z,1.17
2023-04-25T03:31:16.689Z,1.30
2023-04-25T03:33:21.227Z,1.40
2023-04-25T03:35:25.945Z,1.20
2023-04-25T03:37:28.873Z,1.67
2023-04-25T03:39:34.442Z,1.37
2023-04-25T03:41:37.166Z,1.70
2023-04-25T03:43:39.893Z,1.37
2023-04-25T03:45:42.997Z,1.30
2023-04-25T03:47:46.371Z,1.47
2023-04-25T03:49:52.722Z,1.40
2023-04-25T03:51:55.481Z,1.83
2023-04-25T03:53:58.210Z,1.50
2023-04-25T03:56:01.334Z,1.57
2023-04-25T03:58:04.041Z,1.50
2023-04-25T04:00:08.188Z,1.30
2023-04-25T04:02:10.991Z,1.43
2023-04-25T04:04:14.516Z,1.20
2023-04-25T04:06:18.902Z,1.40
2023-04-25T04:08:21.603Z,1.27
2023-04-25T04:10:24.567Z,1.50
2023-04-25T04:12:27.642Z,1.20
2023-04-25T04:14:30.530Z,1.50
2023-04-25T04:16:34.422Z,1.47
2023-04-25T04:18:37.941Z,1.50
2023-04-25T04:20:41.033Z,1.07
2023-04-25T04:22:45.170Z,1.47
2023-04-25T04:24:47.922Z,1.10
2023-04-25T04:26:51.718Z,1.30
2023-04-25T04:28:57.135Z,1.33
2023-04-25T04:31:00.675Z,1.30
2023-04-25T04:33:03.567Z,1.37
2023-04-25T04:35:08.027Z,1.17
2023-04-25T04:37:14.055Z,1.30
2023-04-25T04:39:18.142Z,1.30
2023-04-25T04:41:21.436Z,1.30
2023-04-25T04:43:33.455Z,1.00
2023-04-25T04:45:36.218Z,1.67
2023-04-25T04:47:40.551Z,1.37
2023-04-25T04:49:43.720Z,1.30
2023-04-25T04:51:46.840Z,1.27
2023-04-25T04:54:00.157Z,1.23
2023-04-25T04:56:06.613Z,1.10
2023-04-25T04:58:09.347Z,1.40
2023-04-25T05:00:13.879Z,1.40
2023-04-25T05:02:16.606Z,1.40
2023-04-25T05:04:19.571Z,1.40
2023-04-25T05:06:22.457Z,1.40
2023-04-25T05:08:25.980Z,1.60
2023-04-25T05:10:29.144Z,1.60
2023-04-25T05:12:36.345Z,1.60
2023-04-25T05:14:40.246Z,1.33
2023-04-25T05:16:43.032Z,1.20
2023-04-25T05:18:46.022Z,1.50
2023-04-25T05:20:49.169Z,1.17
2023-04-25T05:22:52.143Z,1.50
2023-04-25T05:24:56.152Z,1.20
2023-04-25T05:26:59.178Z,1.23
2023-04-25T05:29:03.632Z,1.20
2023-04-25T05:31:06.488Z,1.27
2023-04-25T05:33:09.911Z,1.33
2023-04-25T05:35:12.749Z,1.43
2023-04-25T05:37:15.527Z,1.50
2023-04-25T05:39:18.770Z,1.13
2023-04-25T05:41:22.033Z,1.40
2023-04-25T05:43:25.061Z,1.70
2023-04-25T05:45:29.346Z,1.53
2023-04-25T05:47:33.554Z,1.37
2023-04-25T05:49:36.933Z,1.60
2023-04-25T05:51:41.872Z,1.30
2023-04-25T05:53:48.714Z,1.70
2023-04-25T05:55:52.093Z,1.53
2023-04-25T05:57:56.042Z,1.47
2023-04-25T05:59:59.514Z,1.60
2023-04-25T06:02:04.511Z,1.23
2023-04-25T06:04:08.757Z,1.83
2023-04-25T06:06:12.275Z,1.67
2023-04-25T06:08:15.601Z,1.30
2023-04-25T06:10:19.549Z,1.60
2023-04-25T06:12:22.925Z,1.40
2023-04-25T06:14:27.244Z,1.53
2023-04-25T06:16:31.708Z,1.57
2023-04-25T06:18:35.831Z,1.50
2023-04-25T06:20:38.940Z,1.40
2023-04-25T06:22:41.645Z,1.30
2023-04-25T06:24:44.475Z,1.40
2023-04-25T06:26:48.560Z,1.23
2023-04-25T06:28:51.761Z,1.30
2023-04-25T06:30:54.586Z,1.40
2023-04-25T06:32:57.361Z,1.50
2023-04-25T06:35:01.436Z,1.30
2023-04-25T06:37:04.519Z,1.43
2023-04-25T06:39:07.232Z,1.50
2023-04-25T06:41:09.991Z,1.40
2023-04-25T06:43:12.745Z,1.40
2023-04-25T06:45:21.903Z,1.10
2023-04-25T06:47:24.669Z,1.40
2023-04-25T06:49:27.408Z,1.03
2023-04-25T06:51:34.095Z,1.50
2023-04-25T06:53:37.587Z,1.30
2023-04-25T06:55:40.473Z,1.30
2023-04-25T06:57:43.165Z,1.50
2023-04-25T06:59:46.198Z,1.40
2023-04-25T07:01:49.298Z,1.30
2023-04-25T07:03:52.307Z,1.20
2023-04-25T07:05:55.822Z,0.87
2023-04-25T07:07:59.834Z,1.40
2023-04-25T07:10:02.950Z,1.20
2023-04-25T07:12:06.239Z,1.40
2023-04-25T07:14:09.018Z,1.50
2023-04-25T07:16:12.118Z,1.27
2023-04-25T07:18:16.347Z,1.33
2023-04-25T07:20:19.123Z,1.57
2023-04-25T07:22:21.895Z,1.20
2023-04-25T07:24:25.972Z,1.30
2023-04-25T07:26:29.043Z,1.60
2023-04-25T07:28:31.761Z,1.90
2023-04-25T07:30:35.859Z,1.80
2023-04-25T07:32:38.948Z,1.60
2023-04-25T07:34:42.551Z,1.50
2023-04-25T07:36:47.016Z,1.80
2023-04-25T07:38:51.046Z,1.90
2023-04-25T07:40:55.770Z,1.73
2023-04-25T07:43:00.739Z,1.57
2023-04-25T07:45:03.802Z,1.20
2023-04-25T07:47:07.964Z,1.50
2023-04-25T07:49:11.075Z,1.57
2023-04-25T07:51:14.561Z,1.67
2023-04-25T07:53:18.862Z,1.90
2023-04-25T07:55:22.965Z,2.20
2023-04-25T07:57:28.224Z,1.83
2023-04-25T07:59:31.037Z,2.20
2023-04-25T08:01:33.764Z,3.03
2023-04-25T08:03:36.780Z,2.53
2023-04-25T08:05:42.548Z,2.10
2023-04-25T08:07:45.587Z,1.80
2023-04-25T08:09:48.339Z,1.97
2023-04-25T08:11:51.774Z,2.20
2023-04-25T08:13:56.388Z,2.20
2023-04-25T08:16:01.310Z,1.93
2023-04-25T08:18:04.223Z,2.50
2023-04-25T08:20:08.098Z,2.27
2023-04-25T08:22:11.343Z,2.30
2023-04-25T08:24:14.092Z,2.00
2023-04-25T08:26:16.859Z,2.77
2023-04-25T08:28:20.413Z,2.20
2023-04-25T08:30:28.219Z,1.87
2023-04-25T08:32:31.279Z,2.00
2023-04-25T08:34:34.401Z,1.73
2023-04-25T08:36:51.830Z,2.47
2023-04-25T08:38:55.540Z,2.03
2023-04-25T08:40:58.530Z,1.87
2023-04-25T08:43:12.297Z,1.97
2023-04-25T08:45:15.705Z,1.97
2023-04-25T08:47:20.160Z,1.83
2023-04-25T08:49:22.907Z,1.80
2023-04-25T08:51:26.416Z,2.00
2023-04-25T08:53:33.833Z,1.77
2023-04-25T08:55:37.468Z,1.80
2023-04-25T08:57:40.565Z,1.80
2023-04-25T08:59:46.745Z,1.80
2023-04-25T09:01:49.801Z,1.83
2023-04-25T09:03:53.929Z,2.10
2023-04-25T09:06:03.250Z,1.67
2023-04-25T09:08:06.642Z,2.00
2023-04-25T09:10:09.918Z,1.90
2023-04-25T09:12:13.029Z,1.53
2023-04-25T09:14:16.941Z,1.60
2023-04-25T09:16:22.772Z,1.80
2023-04-25T09:18:32.195Z,1.77
2023-04-25T09:20:40.386Z,1.80
2023-04-25T09:23:03.517Z,1.63
2023-04-25T09:25:09.607Z,1.80
2023-04-25T09:27:13.016Z,1.90
2023-04-25T09:29:16.222Z,1.80
2023-04-25T09:31:24.253Z,1.70
2023-04-25T09:33:29.971Z,1.60
2023-04-25T09:35:39.473Z,1.67
2023-04-25T09:37:42.482Z,1.33
2023-04-25T09:39:46.327Z,1.60
2023-04-25T09:41:49.323Z,1.40
2023-04-25T09:43:52.564Z,1.30
2023-04-25T09:45:59.087Z,1.30
2023-04-25T09:48:07.121Z,1.43
2023-04-25T09:50:18.037Z,1.40
2023-04-25T09:52:25.181Z,1.50
2023-04-25T09:54:28.811Z,1.40
2023-04-25T09:56:31.968Z,1.30
2023-04-25T09:58:34.822Z,1.30
2023-04-25T10:00:37.605Z,1.60
2023-04-25T10:02:40.678Z,1.50
2023-04-25T10:04:44.212Z,1.40
2023-04-25T10:06:47.156Z,1.40
2023-04-25T10:08:53.222Z,1.70
2023-04-25T10:10:56.386Z,2.10
2023-04-25T10:12:59.146Z,1.60
2023-04-25T10:15:02.455Z,2.53
2023-04-25T10:17:05.794Z,2.00
2023-04-25T10:19:08.509Z,1.53
2023-04-25T10:21:11.285Z,2.03
2023-04-25T10:23:15.964Z,2.00
2023-04-25T10:25:20.002Z,2.13
2023-04-25T10:27:22.729Z,2.53
2023-04-25T10:29:25.915Z,2.00
2023-04-25T10:31:29.199Z,2.00
2023-04-25T10:33:34.630Z,2.57
2023-04-25T10:35:37.424Z,2.70
2023-04-25T10:37:58.674Z,2.17
2023-04-25T10:40:01.580Z,2.33
2023-04-25T10:42:05.759Z,2.40
2023-04-25T10:44:08.649Z,2.50
2023-04-25T10:46:16.714Z,2.07
2023-04-25T10:48:27.293Z,1.87
2023-04-25T10:50:41.069Z,2.03
2023-04-25T10:52:45.152Z,1.97
2023-04-25T10:54:49.054Z,1.50
2023-04-25T10:56:54.292Z,1.73
2023-04-25T10:59:07.696Z,1.97
2023-04-25T11:01:14.192Z,1.90
2023-04-25T11:03:18.808Z,2.23
2023-04-25T11:05:36.504Z,1.80
2023-04-25T11:07:56.212Z,1.70
2023-04-25T11:10:07.864Z,2.03
2023-04-25T11:12:12.685Z,1.80
2023-04-25T11:14:16.898Z,1.77
2023-04-25T11:16:27.469Z,1.80
2023-04-25T11:18:31.038Z,1.67
2023-04-25T11:20:34.405Z,1.97
2023-04-25T11:22:37.533Z,1.60
2023-04-25T11:24:40.532Z,1.87
2023-04-25T11:26:50.412Z,2.03
2023-04-25T11:28:53.282Z,1.83
2023-04-25T11:30:57.844Z,1.60
2023-04-25T11:33:01.112Z,1.80
2023-04-25T11:35:05.091Z,1.90
2023-04-25T11:37:08.177Z,1.60
2023-04-25T11:39:11.395Z,1.90
2023-04-25T11:41:14.211Z,2.07
2023-04-25T11:43:21.439Z,1.87
2023-04-25T11:45:25.298Z,1.70
2023-04-25T11:47:32.246Z,1.60
2023-04-25T11:49:36.682Z,1.80
2023-04-25T11:51:41.777Z,2.07
2023-04-25T11:53:44.697Z,1.93
2023-04-25T11:55:47.481Z,1.63
2023-04-25T11:57:51.166Z,1.63
2023-04-25T11:59:54.514Z,1.70
2023-04-25T12:01:58.917Z,1.70
2023-04-25T12:04:14.025Z,2.10
2023-04-25T12:06:21.952Z,1.27
2023-04-25T12:08:24.862Z,1.50
2023-04-25T12:10:27.740Z,1.90
2023-04-25T12:12:34.135Z,1.63
2023-04-25T12:14:37.447Z,3.50
2023-04-25T12:16:44.722Z,1.70
2023-04-25T12:18:54.073Z,1.60
2023-04-25T12:20:58.683Z,1.83
2023-04-25T12:23:01.718Z,1.80
2023-04-25T12:25:05.342Z,1.87
2023-04-25T12:27:09.471Z,1.90
2023-04-25T12:29:20.751Z,1.80
2023-04-25T12:31:25.750Z,1.60
2023-04-25T12:33:31.018Z,1.73
2023-04-25T12:35:36.640Z,1.40
2023-04-25T12:37:43.105Z,1.63
2023-04-25T12:39:46.414Z,1.67
2023-04-25T12:41:53.946Z,2.00
2023-04-25T12:43:57.057Z,1.97
2023-04-25T12:46:00.396Z,1.80
2023-04-25T12:48:04.227Z,1.67
2023-04-25T12:50:08.063Z,2.07
2023-04-25T12:52:11.119Z,1.67
2023-04-25T12:54:17.214Z,1.90
2023-04-25T12:56:23.618Z,1.50
2023-04-25T12:58:28.398Z,1.33
2023-04-25T13:00:31.662Z,2.00
2023-04-25T13:02:34.738Z,1.60
2023-04-25T13:04:40.998Z,1.60
2023-04-25T13:06:43.826Z,1.53
2023-04-25T13:08:47.286Z,1.90
2023-04-25T13:10:51.313Z,1.80
2023-04-25T13:12:54.637Z,1.57
2023-04-25T13:14:57.336Z,1.60
2023-04-25T13:17:01.651Z,1.47
2023-04-25T13:19:04.694Z,1.40
2023-04-25T13:21:08.277Z,1.80
2023-04-25T13:23:13.656Z,1.83
2023-04-25T13:25:19.554Z,1.60
2023-04-25T13:27:23.782Z,2.10
2023-04-25T13:29:26.530Z,2.10
2023-04-25T13:31:29.739Z,1.90
2023-04-25T13:33:32.519Z,1.90
2023-04-25T13:35:35.413Z,1.93
2023-04-25T13:37:38.281Z,2.10
2023-04-25T13:39:41.128Z,1.90
2023-04-25T13:41:44.000Z,1.80
2023-04-25T13:43:49.855Z,2.03
2023-04-25T13:45:52.959Z,2.13
2023-04-25T13:47:56.784Z,2.03
2023-04-25T13:50:00.791Z,2.30
2023-04-25T13:52:04.781Z,2.30
2023-04-25T13:54:07.670Z,2.10
2023-04-25T13:56:12.122Z,2.10
2023-04-25T13:58:15.043Z,2.87
2023-04-25T14:00:19.719Z,3.33
2023-04-25T14:02:23.088Z,2.80
2023-04-25T14:04:26.310Z,2.80
2023-04-25T14:06:29.371Z,2.40
2023-04-25T14:08:32.976Z,2.53
2023-04-25T14:10:36.742Z,2.10
2023-04-25T14:12:40.587Z,2.20
2023-04-25T14:14:44.182Z,1.90
2023-04-25T14:16:49.192Z,2.23
2023-04-25T14:18:52.763Z,2.10
2023-04-25T14:20:55.577Z,2.00
2023-04-25T14:22:59.450Z,2.13
2023-04-25T14:25:02.266Z,1.80
2023-04-25T14:27:05.941Z,2.30
2023-04-25T14:29:09.817Z,2.30
2023-04-25T14:31:12.961Z,2.13
2023-04-25T14:33:17.241Z,2.40
2023-04-25T14:35:20.814Z,1.93
2023-04-25T14:37:35.663Z,2.10
2023-04-25T14:39:39.033Z,2.23
2023-04-25T14:41:41.799Z,2.10
2023-04-25T14:43:53.594Z,2.50
2023-04-25T14:45:58.371Z,2.40
2023-04-25T14:48:01.636Z,2.20
2023-04-25T14:50:06.976Z,2.40
2023-04-25T14:52:11.066Z,2.60
2023-04-25T14:54:14.054Z,2.07
2023-04-25T14:56:18.226Z,2.00
2023-04-25T14:58:22.584Z,1.80
2023-04-25T15:00:28.387Z,2.27
2023-04-25T15:02:32.767Z,2.33
2023-04-25T15:04:37.826Z,2.50
2023-04-25T15:06:45.683Z,2.30
2023-04-25T15:08:49.103Z,1.93
2023-04-25T15:10:52.724Z,2.10
2023-04-25T15:12:56.449Z,1.70
2023-04-25T15:15:03.278Z,2.20
2023-04-25T15:17:06.450Z,2.17
2023-04-25T15:19:09.269Z,1.70
2023-04-25T15:21:12.148Z,2.07
2023-04-25T15:23:16.697Z,1.90
2023-04-25T15:25:20.391Z,1.83
2023-04-25T15:27:23.160Z,1.83
2023-04-25T15:29:27.072Z,2.50
2023-04-25T15:31:30.212Z,2.00
2023-04-25T15:33:33.341Z,2.07
2023-04-25T15:35:38.853Z,2.30
2023-04-25T15:37:42.501Z,2.20
2023-04-25T15:39:47.475Z,2.40
2023-04-25T15:41:54.584Z,2.20
2023-04-25T15:43:57.558Z,1.73
2023-04-25T15:46:00.818Z,1.93
2023-04-25T15:48:15.907Z,2.10
2023-04-25T15:50:18.763Z,1.87
2023-04-25T15:52:22.863Z,2.00
2023-04-25T15:54:26.185Z,2.07
2023-04-25T15:56:30.706Z,2.20
2023-04-25T15:58:33.865Z,2.37
2023-04-25T16:00:37.932Z,2.70
2023-04-25T16:02:41.857Z,3.03
2023-04-25T16:04:45.914Z,3.07
2023-04-25T16:06:49.080Z,3.13
2023-04-25T16:08:52.227Z,4.10
2023-04-25T16:10:55.298Z,3.97
2023-04-25T16:12:59.361Z,3.50
2023-04-25T16:15:02.175Z,3.43
2023-04-25T16:17:04.934Z,3.53
2023-04-25T16:19:07.962Z,3.93
2023-04-25T16:21:11.668Z,3.37
2023-04-25T16:23:14.918Z,3.57
2023-04-25T16:25:18.805Z,4.07
2023-04-25T16:27:24.918Z,3.40
2023-04-25T16:29:29.976Z,3.53
2023-04-25T16:31:37.679Z,3.70
2023-04-25T16:33:40.600Z,3.20
2023-04-25T16:35:44.716Z,3.20
2023-04-25T16:37:52.880Z,3.50
2023-04-25T16:39:55.674Z,3.00
2023-04-25T16:42:00.925Z,2.67
2023-04-25T16:44:06.723Z,3.50
2023-04-25T16:46:10.951Z,3.10
2023-04-25T16:48:14.458Z,2.90
2023-04-25T16:50:17.367Z,3.33
2023-04-25T16:52:22.009Z,3.33
2023-04-25T16:54:25.829Z,2.80
2023-04-25T16:56:28.775Z,2.80
2023-04-25T16:58:31.698Z,3.10
2023-04-25T17:00:35.346Z,2.93
2023-04-25T17:02:39.595Z,3.03
2023-04-25T17:04:42.715Z,3.20
2023-04-25T17:06:45.617Z,2.50
2023-04-25T17:08:49.046Z,2.77
2023-04-25T17:10:53.434Z,2.47
2023-04-25T17:12:56.295Z,2.83
2023-04-25T17:15:00.327Z,2.30
2023-04-25T17:17:04.302Z,2.60
2023-04-25T17:19:10.115Z,2.53
2023-04-25T17:21:13.492Z,2.90
2023-04-25T17:23:17.049Z,2.17
2023-04-25T17:25:21.173Z,2.40
2023-04-25T17:27:24.983Z,2.60
2023-04-25T17:29:30.698Z,2.10
2023-04-25T17:31:37.770Z,2.07
2023-04-25T17:33:41.071Z,2.30
2023-04-25T17:35:47.432Z,2.57
2023-04-25T17:37:52.463Z,2.10
2023-04-25T17:40:01.175Z,2.47
2023-04-25T17:42:04.463Z,1.90
2023-04-25T17:44:07.283Z,2.40
2023-04-25T17:46:14.783Z,2.13
2023-04-25T17:48:18.280Z,1.80
2023-04-25T17:50:21.305Z,2.13
2023-04-25T17:52:25.640Z,2.00
2023-04-25T17:54:28.716Z,2.10
2023-04-25T17:56:32.325Z,2.00
2023-04-25T17:58:37.232Z,2.00
2023-04-25T18:00:41.160Z,1.80
2023-04-25T18:02:49.534Z,2.47
2023-04-25T18:04:52.726Z,2.10
2023-04-25T18:06:56.109Z,1.67
2023-04-25T18:09:02.117Z,1.93
2023-04-25T18:11:05.096Z,1.80
2023-04-25T18:13:09.135Z,1.80
2023-04-25T18:15:12.796Z,1.87
2023-04-25T18:17:15.759Z,1.60
2023-04-25T18:19:22.659Z,2.00
2023-04-25T18:21:26.215Z,2.07
2023-04-25T18:23:30.234Z,1.97
2023-04-25T18:25:37.248Z,2.00
2023-04-25T18:27:42.286Z,1.57
2023-04-25T18:29:46.477Z,1.80
2023-04-25T18:31:49.922Z,1.97
2023-04-25T18:33:53.380Z,2.20
2023-04-25T18:35:59.648Z,1.87
2023-04-25T18:38:04.097Z,2.10
2023-04-25T18:40:10.307Z,1.80
2023-04-25T18:42:14.468Z,1.90
2023-04-25T18:44:17.736Z,1.93
2023-04-25T18:46:22.819Z,2.17
2023-04-25T18:48:26.354Z,1.87
2023-04-25T18:50:29.324Z,1.70
2023-04-25T18:52:32.600Z,1.80
2023-04-25T18:54:39.223Z,1.73
2023-04-25T18:56:42.720Z,1.60
2023-04-25T18:58:47.116Z,1.87
2023-04-25T19:00:50.107Z,1.83
2023-04-25T19:02:53.136Z,1.83
2023-04-25T19:04:56.412Z,1.60
2023-04-25T19:06:59.716Z,2.10
2023-04-25T19:09:02.777Z,1.50
2023-04-25T19:11:18.070Z,1.70
2023-04-25T19:13:23.806Z,1.47
2023-04-25T19:15:31.033Z,1.87
2023-04-25T19:17:34.353Z,1.87
2023-04-25T19:19:38.233Z,1.83
2023-04-25T19:21:41.769Z,1.70
2023-04-25T19:23:45.366Z,2.10
2023-04-25T19:25:48.200Z,1.93
2023-04-25T19:27:54.956Z,1.87
2023-04-25T19:30:07.711Z,1.97
2023-04-25T19:32:13.141Z,1.73
2023-04-25T19:34:34.223Z,1.50
2023-04-25T19:36:38.433Z,1.80
2023-04-25T19:38:52.590Z,1.80
2023-04-25T19:40:56.378Z,2.13
2023-04-25T19:43:03.068Z,1.80
2023-04-25T19:45:33.830Z,1.70
2023-04-25T19:47:38.883Z,1.73
2023-04-25T19:49:42.033Z,1.40
2023-04-25T19:51:46.928Z,1.20
2023-04-25T19:53:50.921Z,1.23
2023-04-25T19:55:54.137Z,1.10
2023-04-25T19:57:56.986Z,1.10
2023-04-25T19:59:59.786Z,1.40
2023-04-25T20:02:05.640Z,1.63
2023-04-25T20:04:18.302Z,1.40
2023-04-25T20:06:21.657Z,1.20
2023-04-25T20:08:26.161Z,1.57
2023-04-25T20:10:29.577Z,1.40
2023-04-25T20:12:32.520Z,1.60
2023-04-25T20:14:38.093Z,1.27
2023-04-25T20:16:43.013Z,1.50
2023-04-25T20:18:45.970Z,1.20
2023-04-25T20:20:50.069Z,1.37
2023-04-25T20:22:54.500Z,1.40
2023-04-25T20:24:57.679Z,1.07
2023-04-25T20:27:01.268Z,1.47
2023-04-25T20:29:10.091Z,1.40
2023-04-25T20:31:12.957Z,1.20
2023-04-25T20:33:15.896Z,1.03
2023-04-25T20:35:19.323Z,1.00
2023-04-25T20:37:23.427Z,1.20
2023-04-25T20:39:26.893Z,1.13
2023-04-25T20:41:31.634Z,1.70
2023-04-25T20:43:34.412Z,1.30
2023-04-25T20:45:43.656Z,1.20
2023-04-25T20:47:46.612Z,1.17
2023-04-25T20:49:49.980Z,0.90
2023-04-25T20:51:52.810Z,1.30
2023-04-25T20:53:57.148Z,1.20
2023-04-25T20:56:00.522Z,1.20
2023-04-25T20:58:03.346Z,1.03
2023-04-25T21:00:13.959Z,1.13
2023-04-25T21:02:16.810Z,1.30
2023-04-25T21:04:21.092Z,1.00
2023-04-25T21:06:27.641Z,1.03
2023-04-25T21:08:30.462Z,1.37
2023-04-25T21:10:37.874Z,1.10
2023-04-25T21:12:41.080Z,1.00
2023-04-25T21:14:43.942Z,0.87
2023-04-25T21:16:46.990Z,1.10
2023-04-25T21:18:50.407Z,1.00
2023-04-25T21:20:54.368Z,1.00
2023-04-25T21:22:57.959Z,0.90
2023-04-25T21:25:06.738Z,1.30
2023-04-25T21:27:11.660Z,0.90
2023-04-25T21:29:14.913Z,1.00
2023-04-25T21:31:18.162Z,1.10
2023-04-25T21:33:20.907Z,1.13
2023-04-25T21:35:23.851Z,1.27
2023-04-25T21:37:28.151Z,0.80
2023-04-25T21:39:31.245Z,1.00
2023-04-25T21:41:34.029Z,0.90
2023-04-25T21:43:39.456Z,1.13
2023-04-25T21:46:09.061Z,0.90
2023-04-25T21:48:07.922Z,0.93
2023-04-25T21:50:12.121Z,1.00
2023-04-25T21:52:16.436Z,1.10
2023-04-25T21:54:19.220Z,1.10
2023-04-25T21:56:22.164Z,0.80
2023-04-25T21:58:26.645Z,0.90
2023-04-25T22:00:32.104Z,1.00
2023-04-25T22:02:37.098Z,0.83
2023-04-25T22:04:43.026Z,0.97
2023-04-25T22:06:48.158Z,0.87
2023-04-25T22:08:52.595Z,0.80
2023-04-25T22:10:56.187Z,1.00
2023-04-25T22:12:59.077Z,1.00
2023-04-25T22:15:01.983Z,0.80
2023-04-25T22:17:06.549Z,0.87
2023-04-25T22:19:09.493Z,0.90
2023-04-25T22:21:12.780Z,0.83
2023-04-25T22:23:16.118Z,0.90
2023-04-25T22:25:19.425Z,1.00
2023-04-25T22:27:22.358Z,0.90
2023-04-25T22:29:25.160Z,0.90
2023-04-25T22:31:28.979Z,0.80
2023-04-25T22:33:33.555Z,1.10
2023-04-25T22:35:37.011Z,1.17
2023-04-25T22:37:40.259Z,0.60
2023-04-25T22:39:43.638Z,0.70
2023-04-25T22:41:46.498Z,0.90
2023-04-25T22:43:50.521Z,0.80
2023-04-25T22:45:58.286Z,1.00
2023-04-25T22:48:01.446Z,0.90
2023-04-25T22:50:07.930Z,1.00
2023-04-25T22:52:11.055Z,1.00
2023-04-25T22:54:14.254Z,0.87
2023-04-25T22:56:17.474Z,0.90
2023-04-25T22:58:20.867Z,1.00
2023-04-25T23:00:26.187Z,0.70
2023-04-25T23:02:29.110Z,1.00
2023-04-25T23:04:32.835Z,0.90
2023-04-25T23:06:38.054Z,0.73
2023-04-25T23:08:41.826Z,0.90
2023-04-25T23:10:44.616Z,0.73
2023-04-25T23:12:47.887Z,0.70
2023-04-25T23:14:51.934Z,1.10
2023-04-25T23:16:55.415Z,1.00
2023-04-25T23:18:58.201Z,0.80
2023-04-25T23:21:02.556Z,0.60
2023-04-25T23:23:07.490Z,0.80
2023-04-25T23:25:10.857Z,0.63
2023-04-25T23:27:14.118Z,1.00
2023-04-25T23:29:18.128Z,0.97
2023-04-25T23:31:20.942Z,0.70
2023-04-25T23:33:23.697Z,0.83
2023-04-25T23:35:27.651Z,0.80
2023-04-25T23:37:31.609Z,0.70
2023-04-25T23:39:35.716Z,0.60
2023-04-25T23:41:39.315Z,1.30
2023-04-25T23:43:42.248Z,0.97
2023-04-25T23:45:46.678Z,0.60
2023-04-25T23:47:49.500Z,0.97
2023-04-25T23:49:52.344Z,0.77
2023-04-25T23:51:55.092Z,0.80
2023-04-25T23:53:57.853Z,0.90
2023-04-25T23:56:01.905Z,0.90
2023-04-25T23:58:04.895Z,1.00
